Etusivu
METAR-TAF:

METAR-TAF

Lentoasemat :

Marshall County Airport

Lacon, Illinois, Yhdysvallat

Leveyspiiri: 41-01-09N, Pituuspiiri: 089-23-11W, korkeus merenpinnasta: 173 m

Tämänhetkinen sää

Tämä raportti tehtiin 18 minuuttia sitten, kello 12.55 UTC
tyyntä
Lämpötila -7°C
Kosteus 93%
Ilmanpaine 1028 hPa
Näkyvyys: 11.3 km
selkeää

METAR: KC75 151255Z AUTO 00000KT 7SM CLR M07/M08 A3037 RMK AO2 T10661082

Aika: 07:13 (13:13 UTC)


TAF: puuttuu

Säähavainnot ja -ennusteet yli 4000 lentoasemalta (METAR- ja TAF-raportit).

Käytössä olevat sääasemat on merkitty karttaan keltaisilla ja punaisilla pisteillä.

Aseta hiiri pisteen päälle nähdäksesi sääaseman nimen.

Klikkaa sitten nähdäksesi säähavainnot ja -ennusteet.

Kartan vaihtaminen: klikkaa mustalla rastilla varustettuja vihreitä pisteitä, niin voit zoomata sisään; viivalla varustettua vihreää pistettä, niin voit zoomata ulos tai vihreitä nuolia, niin pääset viereisille kartoille.


METAR-TAF: